sensor_id;sensor_type;location;lat;lon;timestamp;temperature;humidity
16140;DHT22;8175;49.326;12.690;2023-03-11T00:00:10;0.40;99.90
16140;DHT22;8175;49.326;12.690;2023-03-11T00:02:41;0.40;99.90
16140;DHT22;8175;49.326;12.690;2023-03-11T00:05:08;0.40;99.90
16140;DHT22;8175;49.326;12.690;2023-03-11T00:07:34;0.40;99.90
16140;DHT22;8175;49.326;12.690;2023-03-11T00:10:02;0.40;99.90
16140;DHT22;8175;49.326;12.690;2023-03-11T00:12:27;0.50;99.90
16140;DHT22;8175;49.326;12.690;2023-03-11T00:14:53;0.50;99.90
16140;DHT22;8175;49.326;12.690;2023-03-11T00:17:18;0.50;99.90
16140;DHT22;8175;49.326;12.690;2023-03-11T00:19:44;0.50;99.90
16140;DHT22;8175;49.326;12.690;2023-03-11T00:22:10;0.50;99.90
16140;DHT22;8175;49.326;12.690;2023-03-11T00:24:35;0.50;99.90
16140;DHT22;8175;49.326;12.690;2023-03-11T00:27:01;0.50;99.90
16140;DHT22;8175;49.326;12.690;2023-03-11T00:29:26;0.50;99.90
16140;DHT22;8175;49.326;12.690;2023-03-11T00:31:52;0.40;99.90
16140;DHT22;8175;49.326;12.690;2023-03-11T00:34:18;0.50;99.90
16140;DHT22;8175;49.326;12.690;2023-03-11T00:36:43;0.40;99.90
16140;DHT22;8175;49.326;12.690;2023-03-11T00:39:09;0.40;99.90
16140;DHT22;8175;49.326;12.690;2023-03-11T00:41:35;0.40;99.90
16140;DHT22;8175;49.326;12.690;2023-03-11T00:44:01;0.40;99.90
16140;DHT22;8175;49.326;12.690;2023-03-11T00:46:27;0.40;99.90
16140;DHT22;8175;49.326;12.690;2023-03-11T00:48:55;0.40;99.90
16140;DHT22;8175;49.326;12.690;2023-03-11T00:51:21;0.40;99.90
16140;DHT22;8175;49.326;12.690;2023-03-11T00:53:46;0.40;99.90
16140;DHT22;8175;49.326;12.690;2023-03-11T00:56:13;0.40;99.90
16140;DHT22;8175;49.326;12.690;2023-03-11T00:58:40;0.40;99.90
16140;DHT22;8175;49.326;12.690;2023-03-11T01:01:10;0.40;99.90
16140;DHT22;8175;49.326;12.690;2023-03-11T01:03:36;0.30;99.90
16140;DHT22;8175;49.326;12.690;2023-03-11T01:06:03;0.40;99.90
16140;DHT22;8175;49.326;12.690;2023-03-11T01:08:28;0.40;99.90
16140;DHT22;8175;49.326;12.690;2023-03-11T01:10:56;0.40;99.90
16140;DHT22;8175;49.326;12.690;2023-03-11T01:13:22;0.40;99.90
16140;DHT22;8175;49.326;12.690;2023-03-11T01:15:48;0.40;99.90
16140;DHT22;8175;49.326;12.690;2023-03-11T01:18:14;0.40;99.90
16140;DHT22;8175;49.326;12.690;2023-03-11T01:20:40;0.50;99.90
16140;DHT22;8175;49.326;12.690;2023-03-11T01:23:07;0.50;99.90
16140;DHT22;8175;49.326;12.690;2023-03-11T01:25:33;0.40;99.90
16140;DHT22;8175;49.326;12.690;2023-03-11T01:27:59;0.40;99.90
16140;DHT22;8175;49.326;12.690;2023-03-11T01:30:26;0.40;99.90
16140;DHT22;8175;49.326;12.690;2023-03-11T01:32:53;0.40;99.90
16140;DHT22;8175;49.326;12.690;2023-03-11T01:35:21;0.40;99.90
16140;DHT22;8175;49.326;12.690;2023-03-11T01:37:47;0.40;99.90
16140;DHT22;8175;49.326;12.690;2023-03-11T01:40:32;0.40;99.90
16140;DHT22;8175;49.326;12.690;2023-03-11T01:43:00;0.30;99.90
16140;DHT22;8175;49.326;12.690;2023-03-11T01:46:04;0.30;99.90
16140;DHT22;8175;49.326;12.690;2023-03-11T01:48:32;0.30;99.90
16140;DHT22;8175;49.326;12.690;2023-03-11T01:50:58;0.30;99.90
16140;DHT22;8175;49.326;12.690;2023-03-11T01:53:24;0.30;99.90
16140;DHT22;8175;49.326;12.690;2023-03-11T01:55:50;0.30;99.90
16140;DHT22;8175;49.326;12.690;2023-03-11T01:58:23;0.30;99.90
16140;DHT22;8175;49.326;12.690;2023-03-11T02:00:49;0.40;99.90
16140;DHT22;8175;49.326;12.690;2023-03-11T02:03:42;0.40;99.90
16140;DHT22;8175;49.326;12.690;2023-03-11T02:06:13;0.30;99.90
16140;DHT22;8175;49.326;12.690;2023-03-11T02:08:41;0.40;99.90
16140;DHT22;8175;49.326;12.690;2023-03-11T02:11:09;0.40;99.90
16140;DHT22;8175;49.326;12.690;2023-03-11T02:13:36;0.30;99.90
16140;DHT22;8175;49.326;12.690;2023-03-11T02:16:07;0.40;99.90
16140;DHT22;8175;49.326;12.690;2023-03-11T02:18:33;0.30;99.90
16140;DHT22;8175;49.326;12.690;2023-03-11T02:26:22;0.40;99.90
16140;DHT22;8175;49.326;12.690;2023-03-11T02:28:50;0.40;99.90
16140;DHT22;8175;49.326;12.690;2023-03-11T02:31:17;0.40;99.90
16140;DHT22;8175;49.326;12.690;2023-03-11T02:33:44;0.30;99.90
16140;DHT22;8175;49.326;12.690;2023-03-11T02:36:34;0.40;99.90
16140;DHT22;8175;49.326;12.690;2023-03-11T02:39:00;0.40;99.90
16140;DHT22;8175;49.326;12.690;2023-03-11T02:41:26;0.40;99.90
16140;DHT22;8175;49.326;12.690;2023-03-11T02:43:52;0.30;99.90
16140;DHT22;8175;49.326;12.690;2023-03-11T02:46:19;0.30;99.90
16140;DHT22;8175;49.326;12.690;2023-03-11T02:48:45;0.30;99.90
16140;DHT22;8175;49.326;12.690;2023-03-11T02:51:11;0.30;99.90
16140;DHT22;8175;49.326;12.690;2023-03-11T02:53:45;0.30;99.90
16140;DHT22;8175;49.326;12.690;2023-03-11T02:56:12;0.30;99.90
16140;DHT22;8175;49.326;12.690;2023-03-11T02:58:37;0.30;99.90
16140;DHT22;8175;49.326;12.690;2023-03-11T03:01:03;0.30;99.90
16140;DHT22;8175;49.326;12.690;2023-03-11T03:03:29;0.20;99.90
16140;DHT22;8175;49.326;12.690;2023-03-11T03:05:54;0.20;99.90
16140;DHT22;8175;49.326;12.690;2023-03-11T03:08:20;0.20;99.90
16140;DHT22;8175;49.326;12.690;2023-03-11T03:10:45;0.20;99.90
16140;DHT22;8175;49.326;12.690;2023-03-11T03:13:11;0.20;99.90
16140;DHT22;8175;49.326;12.690;2023-03-11T03:15:37;0.20;99.90
16140;DHT22;8175;49.326;12.690;2023-03-11T03:18:03;0.30;99.90
16140;DHT22;8175;49.326;12.690;2023-03-11T03:20:29;0.20;99.90
16140;DHT22;8175;49.326;12.690;2023-03-11T03:22:54;0.20;99.90
16140;DHT22;8175;49.326;12.690;2023-03-11T03:25:20;0.20;99.90
16140;DHT22;8175;49.326;12.690;2023-03-11T03:27:47;0.20;99.90
16140;DHT22;8175;49.326;12.690;2023-03-11T03:30:13;0.20;99.90
16140;DHT22;8175;49.326;12.690;2023-03-11T03:32:38;0.20;99.90
16140;DHT22;8175;49.326;12.690;2023-03-11T03:35:05;0.20;99.90
16140;DHT22;8175;49.326;12.690;2023-03-11T03:37:34;0.10;99.90
16140;DHT22;8175;49.326;12.690;2023-03-11T03:40:01;0.10;99.90
16140;DHT22;8175;49.326;12.690;2023-03-11T03:42:28;0.10;99.90
16140;DHT22;8175;49.326;12.690;2023-03-11T03:44:53;0.10;99.90
16140;DHT22;8175;49.326;12.690;2023-03-11T03:47:19;0.00;99.90
16140;DHT22;8175;49.326;12.690;2023-03-11T03:49:45;0.00;99.90
16140;DHT22;8175;49.326;12.690;2023-03-11T03:52:11;0.00;99.90
16140;DHT22;8175;49.326;12.690;2023-03-11T03:54:37;0.00;99.90
16140;DHT22;8175;49.326;12.690;2023-03-11T03:57:03;0.00;99.90
16140;DHT22;8175;49.326;12.690;2023-03-11T03:59:29;0.00;99.90
16140;DHT22;8175;49.326;12.690;2023-03-11T04:01:54;0.00;99.90
16140;DHT22;8175;49.326;12.690;2023-03-11T04:04:20;0.00;99.90
16140;DHT22;8175;49.326;12.690;2023-03-11T04:06:46;0.00;99.90
16140;DHT22;8175;49.326;12.690;2023-03-11T04:09:12;0.00;99.90
16140;DHT22;8175;49.326;12.690;2023-03-11T04:11:37;0.00;99.90
16140;DHT22;8175;49.326;12.690;2023-03-11T04:14:04;0.00;99.90
16140;DHT22;8175;49.326;12.690;2023-03-11T04:16:30;0.00;99.90
16140;DHT22;8175;49.326;12.690;2023-03-11T04:18:56;0.00;99.90
16140;DHT22;8175;49.326;12.690;2023-03-11T04:21:22;0.00;99.90
16140;DHT22;8175;49.326;12.690;2023-03-11T04:23:48;0.00;99.90
16140;DHT22;8175;49.326;12.690;2023-03-11T04:26:13;0.00;99.90
16140;DHT22;8175;49.326;12.690;2023-03-11T04:28:39;0.00;99.90
16140;DHT22;8175;49.326;12.690;2023-03-11T04:31:05;-0.10;99.90
16140;DHT22;8175;49.326;12.690;2023-03-11T04:33:31;-0.10;99.90
16140;DHT22;8175;49.326;12.690;2023-03-11T04:35:56;-0.10;99.90
16140;DHT22;8175;49.326;12.690;2023-03-11T04:38:22;0.00;99.90
16140;DHT22;8175;49.326;12.690;2023-03-11T04:40:48;-0.10;99.90
16140;DHT22;8175;49.326;12.690;2023-03-11T04:43:13;-0.10;99.90
16140;DHT22;8175;49.326;12.690;2023-03-11T04:45:40;-0.10;99.90
16140;DHT22;8175;49.326;12.690;2023-03-11T04:48:07;-0.20;99.90
16140;DHT22;8175;49.326;12.690;2023-03-11T04:50:33;-0.20;99.90
16140;DHT22;8175;49.326;12.690;2023-03-11T04:52:59;-0.10;99.90
16140;DHT22;8175;49.326;12.690;2023-03-11T04:55:25;-0.10;99.90
16140;DHT22;8175;49.326;12.690;2023-03-11T04:57:50;-0.10;99.90
16140;DHT22;8175;49.326;12.690;2023-03-11T05:00:16;-0.10;99.90
16140;DHT22;8175;49.326;12.690;2023-03-11T05:02:46;-0.20;99.90
16140;DHT22;8175;49.326;12.690;2023-03-11T05:05:12;-0.10;99.90
16140;DHT22;8175;49.326;12.690;2023-03-11T05:07:37;-0.10;99.90
16140;DHT22;8175;49.326;12.690;2023-03-11T05:10:04;-0.10;99.90
16140;DHT22;8175;49.326;12.690;2023-03-11T05:12:30;-0.20;99.90
16140;DHT22;8175;49.326;12.690;2023-03-11T05:14:55;-0.20;99.90
16140;DHT22;8175;49.326;12.690;2023-03-11T05:17:21;-0.20;99.90
16140;DHT22;8175;49.326;12.690;2023-03-11T05:19:47;-0.20;99.90
16140;DHT22;8175;49.326;12.690;2023-03-11T05:22:13;-0.20;99.90
16140;DHT22;8175;49.326;12.690;2023-03-11T05:24:39;-0.20;99.90
16140;DHT22;8175;49.326;12.690;2023-03-11T05:27:04;-0.20;99.90
16140;DHT22;8175;49.326;12.690;2023-03-11T05:29:30;-0.20;99.90
16140;DHT22;8175;49.326;12.690;2023-03-11T05:31:56;-0.30;99.90
16140;DHT22;8175;49.326;12.690;2023-03-11T05:34:22;-0.20;99.90
16140;DHT22;8175;49.326;12.690;2023-03-11T05:36:47;-0.20;99.90
16140;DHT22;8175;49.326;12.690;2023-03-11T05:39:13;-0.20;99.90
16140;DHT22;8175;49.326;12.690;2023-03-11T05:41:39;-0.20;99.90
16140;DHT22;8175;49.326;12.690;2023-03-11T05:44:05;-0.30;99.90
16140;DHT22;8175;49.326;12.690;2023-03-11T05:46:30;-0.30;99.90
16140;DHT22;8175;49.326;12.690;2023-03-11T05:48:58;-0.20;99.90
16140;DHT22;8175;49.326;12.690;2023-03-11T05:51:24;-0.20;99.90
16140;DHT22;8175;49.326;12.690;2023-03-11T05:53:49;-0.30;99.90
16140;DHT22;8175;49.326;12.690;2023-03-11T05:56:18;-0.30;99.90
16140;DHT22;8175;49.326;12.690;2023-03-11T05:58:45;-0.30;99.90
16140;DHT22;8175;49.326;12.690;2023-03-11T06:01:13;-0.30;99.90
16140;DHT22;8175;49.326;12.690;2023-03-11T06:03:40;-0.40;99.90
16140;DHT22;8175;49.326;12.690;2023-03-11T06:51:16;-0.40;99.90
16140;DHT22;8175;49.326;12.690;2023-03-11T06:53:43;-0.40;99.90
16140;DHT22;8175;49.326;12.690;2023-03-11T06:56:13;-0.40;99.90
16140;DHT22;8175;49.326;12.690;2023-03-11T06:58:40;-0.40;99.90
16140;DHT22;8175;49.326;12.690;2023-03-11T07:01:17;-0.40;99.90
16140;DHT22;8175;49.326;12.690;2023-03-11T07:03:45;-0.60;99.90
16140;DHT22;8175;49.326;12.690;2023-03-11T07:06:19;-0.70;99.90
16140;DHT22;8175;49.326;12.690;2023-03-11T07:08:46;-0.80;99.90
16140;DHT22;8175;49.326;12.690;2023-03-11T07:11:15;-0.80;99.90
16140;DHT22;8175;49.326;12.690;2023-03-11T07:13:41;-0.90;99.90
16140;DHT22;8175;49.326;12.690;2023-03-11T07:16:11;-0.90;99.90
16140;DHT22;8175;49.326;12.690;2023-03-11T07:18:37;-1.00;99.90
16140;DHT22;8175;49.326;12.690;2023-03-11T07:31:57;-1.00;99.90
16140;DHT22;8175;49.326;12.690;2023-03-11T07:34:22;-0.90;99.90
16140;DHT22;8175;49.326;12.690;2023-03-11T07:36:48;-0.80;99.90
16140;DHT22;8175;49.326;12.690;2023-03-11T07:39:16;-0.70;99.90
16140;DHT22;8175;49.326;12.690;2023-03-11T07:41:42;-0.80;99.90
16140;DHT22;8175;49.326;12.690;2023-03-11T07:44:10;-0.70;99.90
16140;DHT22;8175;49.326;12.690;2023-03-11T07:46:36;-0.50;99.90
16140;DHT22;8175;49.326;12.690;2023-03-11T07:49:02;0.00;99.90
16140;DHT22;8175;49.326;12.690;2023-03-11T07:51:30;0.20;99.90
16140;DHT22;8175;49.326;12.690;2023-03-11T07:53:58;0.20;99.90
16140;DHT22;8175;49.326;12.690;2023-03-11T07:56:25;0.30;99.90
16140;DHT22;8175;49.326;12.690;2023-03-11T07:58:51;0.30;99.90
16140;DHT22;8175;49.326;12.690;2023-03-11T08:01:22;0.30;99.90
16140;DHT22;8175;49.326;12.690;2023-03-11T08:03:49;0.60;99.90
16140;DHT22;8175;49.326;12.690;2023-03-11T08:06:21;0.80;99.90
16140;DHT22;8175;49.326;12.690;2023-03-11T08:08:49;0.70;99.90
16140;DHT22;8175;49.326;12.690;2023-03-11T08:11:16;0.50;99.90
16140;DHT22;8175;49.326;12.690;2023-03-11T08:13:43;0.40;99.90
16140;DHT22;8175;49.326;12.690;2023-03-11T08:16:11;0.50;99.90
16140;DHT22;8175;49.326;12.690;2023-03-11T08:18:37;0.70;99.90
16140;DHT22;8175;49.326;12.690;2023-03-11T08:21:04;0.70;99.90
16140;DHT22;8175;49.326;12.690;2023-03-11T08:23:30;0.80;99.90
16140;DHT22;8175;49.326;12.690;2023-03-11T08:25:56;1.20;99.90
16140;DHT22;8175;49.326;12.690;2023-03-11T08:28:22;1.40;99.90
16140;DHT22;8175;49.326;12.690;2023-03-11T08:30:47;1.50;99.90
16140;DHT22;8175;49.326;12.690;2023-03-11T08:33:13;1.50;99.90
16140;DHT22;8175;49.326;12.690;2023-03-11T08:35:39;1.30;99.90
16140;DHT22;8175;49.326;12.690;2023-03-11T08:38:04;1.50;99.90
16140;DHT22;8175;49.326;12.690;2023-03-11T08:40:30;1.40;99.90
16140;DHT22;8175;49.326;12.690;2023-03-11T08:42:56;1.30;99.90
16140;DHT22;8175;49.326;12.690;2023-03-11T08:45:22;1.60;99.90
16140;DHT22;8175;49.326;12.690;2023-03-11T08:47:48;1.70;99.90
16140;DHT22;8175;49.326;12.690;2023-03-11T08:50:16;1.80;99.90
16140;DHT22;8175;49.326;12.690;2023-03-11T08:52:43;1.70;99.90
16140;DHT22;8175;49.326;12.690;2023-03-11T08:55:12;1.70;99.90
16140;DHT22;8175;49.326;12.690;2023-03-11T08:57:38;1.90;99.90
16140;DHT22;8175;49.326;12.690;2023-03-11T09:00:05;1.80;99.90
16140;DHT22;8175;49.326;12.690;2023-03-11T09:02:32;1.80;99.90
16140;DHT22;8175;49.326;12.690;2023-03-11T09:04:58;2.00;99.90
16140;DHT22;8175;49.326;12.690;2023-03-11T09:07:24;2.60;99.90
16140;DHT22;8175;49.326;12.690;2023-03-11T09:09:49;3.40;99.90
16140;DHT22;8175;49.326;12.690;2023-03-11T09:12:15;2.80;99.90
16140;DHT22;8175;49.326;12.690;2023-03-11T09:14:41;3.20;99.90
16140;DHT22;8175;49.326;12.690;2023-03-11T09:17:08;4.00;99.90
16140;DHT22;8175;49.326;12.690;2023-03-11T09:19:35;3.90;99.90
16140;DHT22;8175;49.326;12.690;2023-03-11T09:22:01;3.50;99.90
16140;DHT22;8175;49.326;12.690;2023-03-11T09:24:28;4.40;99.90
16140;DHT22;8175;49.326;12.690;2023-03-11T09:26:54;4.70;99.90
16140;DHT22;8175;49.326;12.690;2023-03-11T09:29:19;4.70;99.90
16140;DHT22;8175;49.326;12.690;2023-03-11T09:31:45;4.40;99.90
16140;DHT22;8175;49.326;12.690;2023-03-11T09:34:12;4.30;99.90
16140;DHT22;8175;49.326;12.690;2023-03-11T09:36:40;3.50;99.90
16140;DHT22;8175;49.326;12.690;2023-03-11T09:39:06;2.20;99.90
16140;DHT22;8175;49.326;12.690;2023-03-11T09:41:56;1.80;99.90
16140;DHT22;8175;49.326;12.690;2023-03-11T09:44:42;1.70;99.90
16140;DHT22;8175;49.326;12.690;2023-03-11T09:52:49;2.20;99.90
16140;DHT22;8175;49.326;12.690;2023-03-11T09:55:44;1.80;99.90
16140;DHT22;8175;49.326;12.690;2023-03-11T09:58:20;1.70;99.90
16140;DHT22;8175;49.326;12.690;2023-03-11T10:00:47;1.70;99.90
16140;DHT22;8175;49.326;12.690;2023-03-11T10:06:11;1.70;99.90
16140;DHT22;8175;49.326;12.690;2023-03-11T10:08:46;1.80;99.90
16140;DHT22;8175;49.326;12.690;2023-03-11T10:11:26;2.20;99.90
16140;DHT22;8175;49.326;12.690;2023-03-11T10:16:49;1.90;99.90
16140;DHT22;8175;49.326;12.690;2023-03-11T10:22:22;1.50;99.90
16140;DHT22;8175;49.326;12.690;2023-03-11T10:27:26;1.70;99.90
16140;DHT22;8175;49.326;12.690;2023-03-11T10:37:43;1.60;99.90
16140;DHT22;8175;49.326;12.690;2023-03-11T10:40:32;1.80;99.90
16140;DHT22;8175;49.326;12.690;2023-03-11T10:43:02;1.80;99.90
16140;DHT22;8175;49.326;12.690;2023-03-11T10:45:37;2.30;99.90
16140;DHT22;8175;49.326;12.690;2023-03-11T10:48:09;2.10;99.90
16140;DHT22;8175;49.326;12.690;2023-03-11T10:53:29;2.30;99.90
16140;DHT22;8175;49.326;12.690;2023-03-11T10:55:57;2.90;99.90
16140;DHT22;8175;49.326;12.690;2023-03-11T10:58:28;4.40;99.90
16140;DHT22;8175;49.326;12.690;2023-03-11T11:01:15;5.60;99.90
16140;DHT22;8175;49.326;12.690;2023-03-11T11:03:43;6.70;99.40
16140;DHT22;8175;49.326;12.690;2023-03-11T11:06:26;6.70;96.20
16140;DHT22;8175;49.326;12.690;2023-03-11T11:09:18;5.40;98.30
16140;DHT22;8175;49.326;12.690;2023-03-11T11:14:46;3.30;99.90
16140;DHT22;8175;49.326;12.690;2023-03-11T11:19:49;3.30;99.90
16140;DHT22;8175;49.326;12.690;2023-03-11T11:22:17;3.40;99.90
16140;DHT22;8175;49.326;12.690;2023-03-11T11:24:48;3.10;99.90
16140;DHT22;8175;49.326;12.690;2023-03-11T11:29:45;2.60;99.90
16140;DHT22;8175;49.326;12.690;2023-03-11T11:34:40;2.00;99.90
16140;DHT22;8175;49.326;12.690;2023-03-11T11:37:10;1.90;99.90
16140;DHT22;8175;49.326;12.690;2023-03-11T11:39:47;1.50;99.90
16140;DHT22;8175;49.326;12.690;2023-03-11T11:42:17;1.30;99.90
16140;DHT22;8175;49.326;12.690;2023-03-11T11:44:47;1.00;99.90
16140;DHT22;8175;49.326;12.690;2023-03-11T11:47:32;0.80;99.90
16140;DHT22;8175;49.326;12.690;2023-03-11T11:50:02;0.80;99.90
16140;DHT22;8175;49.326;12.690;2023-03-11T11:52:41;1.00;99.90
16140;DHT22;8175;49.326;12.690;2023-03-11T11:55:25;1.30;99.90
16140;DHT22;8175;49.326;12.690;2023-03-11T11:57:52;1.30;99.90
16140;DHT22;8175;49.326;12.690;2023-03-11T12:03:38;1.50;99.90
16140;DHT22;8175;49.326;12.690;2023-03-11T12:08:51;2.00;99.90
16140;DHT22;8175;49.326;12.690;2023-03-11T12:11:31;2.30;99.90
16140;DHT22;8175;49.326;12.690;2023-03-11T12:27:21;1.70;99.90
16140;DHT22;8175;49.326;12.690;2023-03-11T12:29:53;1.80;99.90
16140;DHT22;8175;49.326;12.690;2023-03-11T12:32:35;1.90;99.90
16140;DHT22;8175;49.326;12.690;2023-03-11T12:35:25;2.10;99.90
16140;DHT22;8175;49.326;12.690;2023-03-11T12:38:03;2.00;99.90
16140;DHT22;8175;49.326;12.690;2023-03-11T12:46:05;2.80;99.90
16140;DHT22;8175;49.326;12.690;2023-03-11T12:48:47;2.60;99.90
16140;DHT22;8175;49.326;12.690;2023-03-11T12:54:43;2.40;99.90
16140;DHT22;8175;49.326;12.690;2023-03-11T13:05:41;3.00;99.90
16140;DHT22;8175;49.326;12.690;2023-03-11T13:08:14;3.40;99.90
16140;DHT22;8175;49.326;12.690;2023-03-11T13:10:52;3.40;99.90
16140;DHT22;8175;49.326;12.690;2023-03-11T13:13:37;3.50;99.90
16140;DHT22;8175;49.326;12.690;2023-03-11T13:18:48;4.20;99.90
16140;DHT22;8175;49.326;12.690;2023-03-11T13:35:27;6.20;98.20
16140;DHT22;8175;49.326;12.690;2023-03-11T13:41:30;4.30;99.90
16140;DHT22;8175;49.326;12.690;2023-03-11T13:46:46;2.40;99.90
16140;DHT22;8175;49.326;12.690;2023-03-11T13:52:01;1.70;99.90
16140;DHT22;8175;49.326;12.690;2023-03-11T13:54:50;1.50;99.90
16140;DHT22;8175;49.326;12.690;2023-03-11T13:57:29;1.50;99.90
16140;DHT22;8175;49.326;12.690;2023-03-11T13:59:57;1.70;99.90
16140;DHT22;8175;49.326;12.690;2023-03-11T14:02:28;1.80;99.90
16140;DHT22;8175;49.326;12.690;2023-03-11T14:05:03;2.20;99.90
16140;DHT22;8175;49.326;12.690;2023-03-11T14:07:32;2.40;99.90
16140;DHT22;8175;49.326;12.690;2023-03-11T14:12:45;2.70;99.90
16140;DHT22;8175;49.326;12.690;2023-03-11T14:15:20;2.90;99.90
16140;DHT22;8175;49.326;12.690;2023-03-11T14:17:49;3.30;99.90
16140;DHT22;8175;49.326;12.690;2023-03-11T14:20:23;3.00;99.90
16140;DHT22;8175;49.326;12.690;2023-03-11T14:22:54;2.60;99.90
16140;DHT22;8175;49.326;12.690;2023-03-11T14:25:25;2.20;99.90
16140;DHT22;8175;49.326;12.690;2023-03-11T14:28:00;1.90;99.90
16140;DHT22;8175;49.326;12.690;2023-03-11T14:30:31;1.70;99.90
16140;DHT22;8175;49.326;12.690;2023-03-11T14:33:01;1.50;99.90
16140;DHT22;8175;49.326;12.690;2023-03-11T14:35:28;1.20;99.90
16140;DHT22;8175;49.326;12.690;2023-03-11T14:37:56;1.00;99.90
16140;DHT22;8175;49.326;12.690;2023-03-11T14:40:27;0.90;99.90
16140;DHT22;8175;49.326;12.690;2023-03-11T14:43:03;0.80;99.90
16140;DHT22;8175;49.326;12.690;2023-03-11T14:45:35;0.80;99.90
16140;DHT22;8175;49.326;12.690;2023-03-11T14:50:43;0.80;99.90
16140;DHT22;8175;49.326;12.690;2023-03-11T14:53:56;0.90;99.90
16140;DHT22;8175;49.326;12.690;2023-03-11T14:56:06;1.00;99.90
16140;DHT22;8175;49.326;12.690;2023-03-11T14:58:39;1.10;99.90
16140;DHT22;8175;49.326;12.690;2023-03-11T15:03:42;1.00;99.90
16140;DHT22;8175;49.326;12.690;2023-03-11T15:06:17;1.00;99.90
16140;DHT22;8175;49.326;12.690;2023-03-11T15:08:47;0.90;99.90
16140;DHT22;8175;49.326;12.690;2023-03-11T15:13:42;0.80;99.90
16140;DHT22;8175;49.326;12.690;2023-03-11T15:16:34;0.80;99.90
16140;DHT22;8175;49.326;12.690;2023-03-11T15:19:46;0.80;99.90
16140;DHT22;8175;49.326;12.690;2023-03-11T15:21:48;0.80;99.90
16140;DHT22;8175;49.326;12.690;2023-03-11T15:24:20;0.70;99.90
16140;DHT22;8175;49.326;12.690;2023-03-11T15:27:06;0.70;99.90
16140;DHT22;8175;49.326;12.690;2023-03-11T15:29:33;0.70;99.90
16140;DHT22;8175;49.326;12.690;2023-03-11T15:37:32;0.60;99.90
16140;DHT22;8175;49.326;12.690;2023-03-11T15:42:36;0.60;99.90
16140;DHT22;8175;49.326;12.690;2023-03-11T15:45:14;0.60;99.90
16140;DHT22;8175;49.326;12.690;2023-03-11T15:47:41;0.70;99.90
16140;DHT22;8175;49.326;12.690;2023-03-11T15:50:19;0.70;99.90
16140;DHT22;8175;49.326;12.690;2023-03-11T15:52:46;0.70;99.90
16140;DHT22;8175;49.326;12.690;2023-03-11T15:55:12;0.80;99.90
16140;DHT22;8175;49.326;12.690;2023-03-11T15:57:39;0.80;99.90
16140;DHT22;8175;49.326;12.690;2023-03-11T16:00:17;0.80;99.90
16140;DHT22;8175;49.326;12.690;2023-03-11T16:02:44;0.80;99.90
16140;DHT22;8175;49.326;12.690;2023-03-11T16:05:22;0.80;99.90
16140;DHT22;8175;49.326;12.690;2023-03-11T16:07:48;0.90;99.90
16140;DHT22;8175;49.326;12.690;2023-03-11T16:10:17;0.90;99.90
16140;DHT22;8175;49.326;12.690;2023-03-11T16:12:43;0.90;99.90
16140;DHT22;8175;49.326;12.690;2023-03-11T16:15:18;0.80;99.90
16140;DHT22;8175;49.326;12.690;2023-03-11T16:17:44;0.80;99.90
16140;DHT22;8175;49.326;12.690;2023-03-11T16:20:10;0.70;99.90
16140;DHT22;8175;49.326;12.690;2023-03-11T16:22:36;0.70;99.90
16140;DHT22;8175;49.326;12.690;2023-03-11T16:25:02;0.70;99.90
16140;DHT22;8175;49.326;12.690;2023-03-11T16:27:29;0.60;99.90
16140;DHT22;8175;49.326;12.690;2023-03-11T16:29:55;0.60;99.90
16140;DHT22;8175;49.326;12.690;2023-03-11T16:32:20;0.60;99.90
16140;DHT22;8175;49.326;12.690;2023-03-11T16:34:46;0.50;99.90
16140;DHT22;8175;49.326;12.690;2023-03-11T16:37:16;0.50;99.90
16140;DHT22;8175;49.326;12.690;2023-03-11T16:39:45;0.50;99.90
16140;DHT22;8175;49.326;12.690;2023-03-11T16:42:11;0.50;99.90
16140;DHT22;8175;49.326;12.690;2023-03-11T16:44:37;0.50;99.90
16140;DHT22;8175;49.326;12.690;2023-03-11T16:47:03;0.40;99.90
16140;DHT22;8175;49.326;12.690;2023-03-11T16:49:28;0.40;99.90
16140;DHT22;8175;49.326;12.690;2023-03-11T16:51:54;0.40;99.90
16140;DHT22;8175;49.326;12.690;2023-03-11T16:54:19;0.40;99.90
16140;DHT22;8175;49.326;12.690;2023-03-11T16:56:45;0.40;99.90
16140;DHT22;8175;49.326;12.690;2023-03-11T16:59:11;0.40;99.90
16140;DHT22;8175;49.326;12.690;2023-03-11T17:01:36;0.40;99.90
16140;DHT22;8175;49.326;12.690;2023-03-11T17:04:07;0.30;99.90
16140;DHT22;8175;49.326;12.690;2023-03-11T17:06:33;0.30;99.90
16140;DHT22;8175;49.326;12.690;2023-03-11T17:08:59;0.20;99.90
16140;DHT22;8175;49.326;12.690;2023-03-11T17:11:24;0.20;99.90
16140;DHT22;8175;49.326;12.690;2023-03-11T17:13:54;0.20;99.90
16140;DHT22;8175;49.326;12.690;2023-03-11T17:16:20;0.20;99.90
16140;DHT22;8175;49.326;12.690;2023-03-11T17:18:45;0.20;99.90
16140;DHT22;8175;49.326;12.690;2023-03-11T17:21:13;0.20;99.90
16140;DHT22;8175;49.326;12.690;2023-03-11T17:23:39;0.10;99.90
16140;DHT22;8175;49.326;12.690;2023-03-11T17:26:11;0.10;99.90
16140;DHT22;8175;49.326;12.690;2023-03-11T17:28:37;0.10;99.90
16140;DHT22;8175;49.326;12.690;2023-03-11T17:31:05;0.10;99.90
16140;DHT22;8175;49.326;12.690;2023-03-11T17:33:32;0.00;99.90
16140;DHT22;8175;49.326;12.690;2023-03-11T17:36:05;0.00;99.90
16140;DHT22;8175;49.326;12.690;2023-03-11T17:38:31;-0.10;99.90
16140;DHT22;8175;49.326;12.690;2023-03-11T17:40:57;-0.10;99.90
16140;DHT22;8175;49.326;12.690;2023-03-11T17:43:23;-0.20;99.90
16140;DHT22;8175;49.326;12.690;2023-03-11T17:45:49;-0.30;99.90
16140;DHT22;8175;49.326;12.690;2023-03-11T17:48:15;-0.40;99.90
16140;DHT22;8175;49.326;12.690;2023-03-11T17:50:41;-0.50;99.90
16140;DHT22;8175;49.326;12.690;2023-03-11T17:53:07;-0.70;99.90
16140;DHT22;8175;49.326;12.690;2023-03-11T17:55:34;-0.80;99.90
16140;DHT22;8175;49.326;12.690;2023-03-11T17:58:02;-0.90;99.90
16140;DHT22;8175;49.326;12.690;2023-03-11T18:00:28;-1.10;99.90
16140;DHT22;8175;49.326;12.690;2023-03-11T18:02:53;-1.10;99.90
16140;DHT22;8175;49.326;12.690;2023-03-11T18:05:19;-1.20;99.90
16140;DHT22;8175;49.326;12.690;2023-03-11T18:07:45;-1.20;99.90
16140;DHT22;8175;49.326;12.690;2023-03-11T18:10:12;-1.20;99.90
16140;DHT22;8175;49.326;12.690;2023-03-11T18:12:38;-1.20;99.90
16140;DHT22;8175;49.326;12.690;2023-03-11T18:15:07;-1.20;99.90
16140;DHT22;8175;49.326;12.690;2023-03-11T18:17:39;-1.20;99.90
16140;DHT22;8175;49.326;12.690;2023-03-11T18:20:05;-1.20;99.90
16140;DHT22;8175;49.326;12.690;2023-03-11T18:22:31;-1.20;99.90
16140;DHT22;8175;49.326;12.690;2023-03-11T18:24:57;-1.20;99.90
16140;DHT22;8175;49.326;12.690;2023-03-11T18:27:23;-1.20;99.90
16140;DHT22;8175;49.326;12.690;2023-03-11T18:29:49;-1.10;99.90
16140;DHT22;8175;49.326;12.690;2023-03-11T18:32:15;-1.10;99.90
16140;DHT22;8175;49.326;12.690;2023-03-11T18:34:41;-1.10;99.90
16140;DHT22;8175;49.326;12.690;2023-03-11T18:37:07;-1.10;99.90
16140;DHT22;8175;49.326;12.690;2023-03-11T18:39:32;-1.10;99.90
16140;DHT22;8175;49.326;12.690;2023-03-11T18:41:58;-1.10;99.90
16140;DHT22;8175;49.326;12.690;2023-03-11T18:44:24;-1.10;99.90
16140;DHT22;8175;49.326;12.690;2023-03-11T18:46:49;-1.10;99.90
16140;DHT22;8175;49.326;12.690;2023-03-11T18:49:15;-1.10;99.90
16140;DHT22;8175;49.326;12.690;2023-03-11T18:51:41;-1.10;99.90